Time;durP1;ratioP1;P1;durP2;ratioP2;P2;SDS_P1;SDS_P2;PMS_P1;PMS_P2;Temp;Humidity;BMP_temperature;BMP_pressure;BME280_temperature;BME280_humidity;BME280_pressure;Samples;Min_cycle;Max_cycle;Signal;HPM_P1;HPM_P2
2023/07/17 00:01:44;;;;;;;3.20;2.90;;;26.70;60.00;;;;;;222065;1269;22508;-55
2023/07/17 00:06:48;;;;;;;3.00;2.80;;;26.70;60.10;;;;;;222464;1254;22810;-52
2023/07/17 00:11:52;;;;;;;2.80;2.60;;;26.60;60.00;;;;;;222335;1253;24195;-51
2023/07/17 00:16:56;;;;;;;3.40;3.10;;;26.60;60.00;;;;;;222183;1253;22557;-52
2023/07/17 00:22:01;;;;;;;3.30;3.00;;;26.60;60.00;;;;;;222455;1267;25593;-53
2023/07/17 00:27:05;;;;;;;3.50;3.20;;;26.60;60.00;;;;;;222537;1256;22505;-53
2023/07/17 00:32:13;;;;;;;3.10;2.80;;;26.60;60.00;;;;;;222635;1260;22567;-55
2023/07/17 00:37:17;;;;;;;3.20;2.90;;;26.60;60.20;;;;;;222576;1257;25422;-54
2023/07/17 00:42:22;;;;;;;2.90;2.70;;;26.60;60.00;;;;;;222590;1268;22515;-51
2023/07/17 00:47:27;;;;;;;3.40;2.80;;;26.60;60.00;;;;;;222607;1267;24063;-52
2023/07/17 00:52:32;;;;;;;3.30;3.00;;;26.50;60.00;;;;;;223086;1266;22771;-52
2023/07/17 00:57:36;;;;;;;3.20;2.90;;;26.50;60.10;;;;;;222677;1254;24176;-54
2023/07/17 01:02:41;;;;;;;3.20;2.90;;;26.50;60.00;;;;;;222556;1266;25468;-52
2023/07/17 01:07:46;;;;;;;2.60;2.40;;;26.50;60.00;;;;;;222684;1264;23179;-53
2023/07/17 01:12:50;;;;;;;3.00;2.80;;;26.50;60.00;;;;;;222763;1256;24279;-52
2023/07/17 01:17:54;;;;;;;3.40;3.10;;;26.50;60.00;;;;;;222649;1260;25593;-52
2023/07/17 01:23:00;;;;;;;3.00;2.80;;;26.50;60.00;;;;;;222655;1266;22795;-54
2023/07/17 01:28:04;;;;;;;2.80;2.60;;;26.50;60.00;;;;;;223826;1264;24920;-53
2023/07/17 01:33:09;;;;;;;4.60;3.10;;;26.50;60.00;;;;;;223159;1260;22501;-55
2023/07/17 01:38:13;;;;;;;5.90;2.90;;;26.50;59.90;;;;;;222351;1264;22513;-52
2023/07/17 01:43:18;;;;;;;3.40;2.80;;;26.50;60.00;;;;;;222545;1261;25593;-55
2023/07/17 01:48:22;;;;;;;3.00;2.70;;;26.40;60.00;;;;;;222577;1267;24037;-54
2023/07/17 01:53:26;;;;;;;3.80;2.70;;;26.50;60.00;;;;;;222592;1267;24213;-53
2023/07/17 01:58:30;;;;;;;2.90;2.70;;;26.40;60.10;;;;;;222338;1262;22520;-52
2023/07/17 02:03:36;;;;;;;3.00;2.80;;;26.40;60.10;;;;;;222345;1253;22552;-53
2023/07/17 02:08:40;;;;;;;3.00;2.60;;;26.40;60.10;;;;;;222200;1265;24204;-55
2023/07/17 02:13:44;;;;;;;3.00;2.60;;;26.40;60.20;;;;;;222044;1254;255805;-53
2023/07/17 02:18:49;;;;;;;3.10;2.70;;;26.40;60.20;;;;;;222565;1260;22549;-52
2023/07/17 02:23:53;;;;;;;3.10;2.80;;;26.40;60.30;;;;;;222726;1266;22514;-54
2023/07/17 02:28:57;;;;;;;3.10;2.90;;;26.40;60.50;;;;;;222474;1266;24221;-50
2023/07/17 02:34:01;;;;;;;3.80;3.40;;;26.40;60.50;;;;;;222331;1266;22634;-53
2023/07/17 02:39:06;;;;;;;3.80;3.10;;;26.40;60.60;;;;;;222853;1264;25446;-51
2023/07/17 02:44:10;;;;;;;2.90;2.70;;;26.40;60.70;;;;;;222580;1260;25220;-53
2023/07/17 02:49:14;;;;;;;3.40;3.10;;;26.40;60.70;;;;;;222522;1265;22500;-53
2023/07/17 02:54:21;;;;;;;3.40;3.10;;;26.40;60.90;;;;;;222590;1264;22507;-52
2023/07/17 02:59:25;;;;;;;3.00;2.80;;;26.40;60.60;;;;;;222599;1264;22588;-52
2023/07/17 03:04:29;;;;;;;3.00;2.80;;;26.40;60.80;;;;;;222425;1260;24246;-48
2023/07/17 03:09:34;;;;;;;2.90;2.50;;;26.40;60.30;;;;;;222346;1263;22507;-54
2023/07/17 03:14:38;;;;;;;3.60;3.10;;;26.40;60.70;;;;;;222407;1268;22735;-52
2023/07/17 03:19:43;;;;;;;3.40;3.10;;;26.30;60.50;;;;;;222435;1268;24218;-53
2023/07/17 03:24:48;;;;;;;4.80;4.30;;;26.30;60.50;;;;;;222528;1263;25265;-53
2023/07/17 03:29:52;;;;;;;9.00;7.50;;;26.30;60.50;;;;;;222691;1260;22633;-54
2023/07/17 03:34:56;;;;;;;12.40;11.30;;;26.30;60.30;;;;;;222453;1264;22527;-53
2023/07/17 03:40:01;;;;;;;9.10;8.30;;;26.30;60.70;;;;;;222706;1254;24028;-53
2023/07/17 03:45:07;;;;;;;11.20;10.10;;;26.30;60.30;;;;;;222892;1264;25265;-53
2023/07/17 03:50:12;;;;;;;9.60;8.70;;;26.30;60.40;;;;;;222227;1268;24333;-52
2023/07/17 03:55:18;;;;;;;8.10;7.50;;;26.30;60.20;;;;;;222705;1253;22512;-54
2023/07/17 04:00:23;;;;;;;8.30;7.50;;;26.30;60.10;;;;;;222539;1254;22520;-51
2023/07/17 04:05:27;;;;;;;7.90;7.20;;;26.40;60.00;;;;;;222469;1257;24436;-54
2023/07/17 04:10:31;;;;;;;7.10;6.60;;;26.30;60.40;;;;;;222565;1253;22524;-53
2023/07/17 04:15:36;;;;;;;7.40;6.60;;;26.20;60.70;;;;;;222379;1257;25322;-53
2023/07/17 04:20:42;;;;;;;6.40;5.80;;;26.30;60.50;;;;;;222537;1263;24372;-54
2023/07/17 04:25:46;;;;;;;5.60;5.10;;;26.20;60.50;;;;;;222667;1254;25226;-51
2023/07/17 04:30:50;;;;;;;5.30;4.90;;;26.30;60.50;;;;;;222676;1267;22504;-54
2023/07/17 04:35:56;;;;;;;6.30;5.20;;;26.20;60.50;;;;;;222743;1263;22598;-52
2023/07/17 04:41:03;;;;;;;5.40;5.00;;;26.20;60.70;;;;;;222543;1260;22777;-49
2023/07/17 04:46:07;;;;;;;5.70;4.40;;;26.30;60.60;;;;;;222396;1257;22720;-55
2023/07/17 04:51:11;;;;;;;4.20;3.90;;;26.40;60.50;;;;;;222501;1267;22749;-51
2023/07/17 04:56:15;;;;;;;5.00;4.30;;;26.40;60.30;;;;;;222462;1254;25390;-49
2023/07/17 05:01:20;;;;;;;4.40;4.00;;;26.40;60.20;;;;;;222602;1263;22514;-51
2023/07/17 05:06:26;;;;;;;4.80;4.40;;;26.50;60.30;;;;;;222184;1263;22858;-52
2023/07/17 05:11:32;;;;;;;4.50;4.10;;;26.50;60.40;;;;;;222184;1264;24357;-56
2023/07/17 05:16:36;;;;;;;3.90;3.50;;;26.50;60.10;;;;;;222429;1263;23079;-53
2023/07/17 05:21:41;;;;;;;4.00;3.70;;;26.50;60.50;;;;;;222447;1253;22917;-51
2023/07/17 05:26:45;;;;;;;4.70;4.30;;;26.50;60.40;;;;;;222237;1253;22508;-51
2023/07/17 05:31:50;;;;;;;3.70;3.50;;;26.50;60.20;;;;;;222600;1263;22507;-53
2023/07/17 05:36:54;;;;;;;5.90;4.20;;;26.50;60.40;;;;;;222445;1264;22516;-52
2023/07/17 05:41:58;;;;;;;5.90;4.00;;;26.50;60.60;;;;;;222199;1268;22524;-52
2023/07/17 05:47:03;;;;;;;5.10;4.00;;;26.60;60.70;;;;;;222467;1253;24211;-52
2023/07/17 05:52:07;;;;;;;5.00;3.40;;;26.50;60.60;;;;;;222356;1268;22514;-52
2023/07/17 05:57:12;;;;;;;4.50;3.30;;;26.50;61.40;;;;;;222567;1263;25377;-53
2023/07/17 06:02:16;;;;;;;4.10;3.60;;;26.50;60.90;;;;;;222452;1266;22512;-54
2023/07/17 06:07:20;;;;;;;5.30;3.80;;;26.60;61.00;;;;;;222590;1253;22500;-53
2023/07/17 06:12:25;;;;;;;3.90;3.40;;;26.60;61.00;;;;;;222556;1267;24256;-51
2023/07/17 06:17:29;;;;;;;5.30;3.60;;;26.60;60.60;;;;;;222359;1261;22514;-55
2023/07/17 06:22:33;;;;;;;3.60;3.30;;;26.60;60.50;;;;;;222822;1260;22642;-54
2023/07/17 06:27:38;;;;;;;3.80;3.50;;;26.60;60.30;;;;;;222289;1268;24257;-53
2023/07/17 06:32:44;;;;;;;3.80;3.50;;;26.60;60.50;;;;;;222496;1261;24167;-54
2023/07/17 06:37:48;;;;;;;4.40;3.50;;;26.70;60.30;;;;;;222416;1254;25364;-53
2023/07/17 06:42:52;;;;;;;4.00;3.20;;;26.70;60.30;;;;;;222316;1253;22515;-52
2023/07/17 06:47:57;;;;;;;3.10;2.90;;;26.70;60.20;;;;;;222688;1264;25191;-52
2023/07/17 06:53:01;;;;;;;3.50;3.20;;;26.70;60.20;;;;;;222552;1261;22575;-54
2023/07/17 06:58:05;;;;;;;3.30;3.10;;;26.70;60.30;;;;;;222437;1258;24167;-53
2023/07/17 07:03:10;;;;;;;3.80;3.40;;;26.80;60.00;;;;;;222356;1268;24192;-51
2023/07/17 07:08:14;;;;;;;3.30;3.00;;;26.80;60.00;;;;;;222746;1260;24342;-55
2023/07/17 07:13:22;;;;;;;3.30;3.00;;;26.80;60.10;;;;;;222461;1266;24202;-53
2023/07/17 07:18:26;;;;;;;3.30;3.10;;;26.80;60.50;;;;;;222238;1266;24183;-54
2023/07/17 07:23:31;;;;;;;3.40;3.10;;;26.80;60.00;;;;;;222502;1264;22505;-55
2023/07/17 07:28:35;;;;;;;3.80;3.50;;;26.90;59.90;;;;;;222310;1268;22511;-51
2023/07/17 07:33:39;;;;;;;3.50;3.20;;;26.90;60.10;;;;;;222308;1267;22510;-52
2023/07/17 07:38:44;;;;;;;4.00;3.10;;;26.90;60.30;;;;;;220909;1260;25504;-52
2023/07/17 07:43:48;;;;;;;3.90;3.30;;;26.90;60.30;;;;;;221044;1265;22692;-53
2023/07/17 07:48:52;;;;;;;3.40;3.20;;;26.90;60.00;;;;;;221183;1268;22592;-53
2023/07/17 07:53:56;;;;;;;3.50;3.20;;;27.00;60.30;;;;;;221170;1259;22507;-54
2023/07/17 07:59:00;;;;;;;3.00;2.80;;;27.00;60.00;;;;;;222678;1253;22504;-57
2023/07/17 08:04:04;;;;;;;3.40;3.20;;;27.10;59.80;;;;;;222486;1266;22561;-53
2023/07/17 08:09:08;;;;;;;3.70;3.30;;;27.00;59.90;;;;;;222574;1260;25248;-51
2023/07/17 08:14:13;;;;;;;3.80;3.10;;;27.00;60.70;;;;;;222488;1260;22505;-51
2023/07/17 08:19:18;;;;;;;5.30;3.40;;;27.00;60.60;;;;;;222617;1254;22604;-54
2023/07/17 08:24:22;;;;;;;3.30;3.00;;;27.00;60.50;;;;;;222557;1252;25581;-53
2023/07/17 08:29:26;;;;;;;4.90;3.00;;;27.00;60.50;;;;;;221946;1263;22511;-51
2023/07/17 08:34:30;;;;;;;2.90;2.70;;;27.10;60.60;;;;;;222093;1253;24209;-51
2023/07/17 08:39:35;;;;;;;2.80;2.60;;;27.10;60.40;;;;;;222639;1264;24167;-52
2023/07/17 08:44:40;;;;;;;4.70;3.50;;;27.20;60.80;;;;;;222240;1257;22522;-53
2023/07/17 08:49:46;;;;;;;4.10;3.10;;;27.20;61.10;;;;;;222043;1262;24380;-53
2023/07/17 08:54:50;;;;;;;3.70;3.00;;;27.10;61.10;;;;;;222215;1260;22842;-54
2023/07/17 08:59:55;;;;;;;2.90;2.60;;;27.20;60.70;;;;;;222260;1263;25258;-49
2023/07/17 09:04:59;;;;;;;3.50;3.20;;;27.20;60.80;;;;;;222267;1260;22619;-52
2023/07/17 09:10:21;;;;;;;5.20;3.00;;;27.30;60.60;;;;;;222078;1261;22508;-54
2023/07/17 09:15:28;;;;;;;3.10;2.90;;;27.40;60.70;;;;;;222020;1263;22652;-52
2023/07/17 09:20:32;;;;;;;3.60;2.90;;;27.40;61.10;;;;;;222120;1264;25202;-52
2023/07/17 09:25:36;;;;;;;3.50;3.00;;;27.40;61.50;;;;;;222262;1264;24238;-50
2023/07/17 09:30:40;;;;;;;4.70;4.30;;;27.40;61.10;;;;;;222019;1266;25333;-44
2023/07/17 09:35:55;;;;;;;5.20;4.80;;;27.50;61.20;;;;;;222586;1254;25348;-45
2023/07/17 09:40:59;;;;;;;7.00;4.70;;;27.50;61.70;;;;;;221919;1254;24039;-45
2023/07/17 09:46:03;;;;;;;4.20;3.80;;;27.60;61.90;;;;;;222165;1263;22521;-44
2023/07/17 09:51:09;;;;;;;5.20;4.70;;;27.60;62.20;;;;;;222113;1263;24404;-44
2023/07/17 09:56:15;;;;;;;5.20;4.70;;;27.60;61.00;;;;;;222292;1266;25249;-46
2023/07/17 10:01:23;;;;;;;5.20;4.70;;;27.60;61.20;;;;;;222082;1268;26361;-45
2023/07/17 10:06:27;;;;;;;5.50;5.10;;;27.60;60.90;;;;;;222141;1253;22609;-48
2023/07/17 10:11:31;;;;;;;7.10;5.90;;;27.60;61.00;;;;;;222140;1263;22538;-45
2023/07/17 10:16:36;;;;;;;6.20;5.70;;;27.60;61.00;;;;;;222215;1260;24381;-47
2023/07/17 10:22:00;;;;;;;5.20;4.80;;;27.60;60.90;;;;;;222200;1266;24238;-46
2023/07/17 10:27:04;;;;;;;6.10;5.50;;;27.60;60.70;;;;;;222294;1265;22651;-46
2023/07/17 10:32:10;;;;;;;5.50;5.10;;;27.60;60.80;;;;;;221869;1264;22504;-45
2023/07/17 10:37:19;;;;;;;4.70;4.40;;;27.60;60.70;;;;;;222229;1260;22652;-45
2023/07/17 10:42:25;;;;;;;5.00;4.60;;;27.60;60.50;;;;;;222242;1266;22521;-44
2023/07/17 10:47:29;;;;;;;4.80;4.40;;;27.60;60.30;;;;;;222016;1263;23896;-44
2023/07/17 10:52:34;;;;;;;6.00;5.20;;;27.60;60.70;;;;;;222050;1257;22523;-46
2023/07/17 10:57:38;;;;;;;6.50;4.20;;;27.60;60.30;;;;;;222079;1246;23062;-44
2023/07/17 11:02:42;;;;;;;4.90;4.50;;;27.70;60.30;;;;;;222217;1261;25447;-47
2023/07/17 11:07:47;;;;;;;6.70;3.90;;;27.70;59.90;;;;;;222205;1261;22508;-44
2023/07/17 11:12:51;;;;;;;4.20;3.90;;;27.80;59.70;;;;;;222503;1266;22508;-46
2023/07/17 11:17:57;;;;;;;3.90;3.60;;;27.60;60.00;;;;;;222336;1269;23893;-47
2023/07/17 11:23:03;;;;;;;4.00;3.50;;;27.60;59.70;;;;;;222471;1254;22518;-50
2023/07/17 11:28:08;;;;;;;4.00;3.60;;;27.70;59.40;;;;;;222219;1257;22633;-45
2023/07/17 11:33:12;;;;;;;4.00;3.60;;;27.70;59.00;;;;;;222332;1267;22737;-46
2023/07/17 11:38:18;;;;;;;3.70;3.30;;;27.60;59.50;;;;;;222199;1257;22520;-48
2023/07/17 11:43:35;;;;;;;4.00;3.60;;;27.60;58.50;;;;;;222380;1268;22508;-48
2023/07/17 11:48:46;;;;;;;5.40;3.90;;;27.70;58.00;;;;;;222403;1255;25258;-45
2023/07/17 11:53:54;;;;;;;4.00;3.70;;;27.60;57.40;;;;;;222378;1261;24404;-45
2023/07/17 11:58:59;;;;;;;4.20;3.40;;;27.70;56.60;;;;;;222254;1266;22512;-44
2023/07/17 12:04:24;;;;;;;4.70;3.80;;;27.70;55.80;;;;;;222486;1268;24189;-45
2023/07/17 12:09:29;;;;;;;3.90;3.60;;;27.70;55.40;;;;;;222330;1258;22532;-47
2023/07/17 12:14:33;;;;;;;4.10;3.50;;;27.70;54.80;;;;;;222332;1266;22791;-45
2023/07/17 12:19:37;;;;;;;4.00;3.20;;;27.70;53.60;;;;;;222173;1267;24238;-43
2023/07/17 12:24:42;;;;;;;5.80;3.40;;;27.80;53.40;;;;;;222327;1260;22517;-46
2023/07/17 12:29:46;;;;;;;3.70;3.20;;;27.90;53.70;;;;;;222439;1268;22683;-46
2023/07/17 12:34:50;;;;;;;3.70;3.30;;;27.90;53.40;;;;;;222358;1263;22517;-45
2023/07/17 12:39:54;;;;;;;4.10;3.70;;;27.90;53.60;;;;;;222379;1268;22749;-45
2023/07/17 12:45:00;;;;;;;3.90;3.40;;;28.00;53.40;;;;;;222330;1266;24300;-44
2023/07/17 12:50:05;;;;;;;3.60;3.30;;;28.00;53.10;;;;;;222393;1243;24270;-44
2023/07/17 12:55:09;;;;;;;4.00;3.60;;;27.90;52.80;;;;;;222562;1266;24398;-46
2023/07/17 13:00:14;;;;;;;5.10;3.80;;;27.90;52.90;;;;;;222329;1256;22630;-46
2023/07/17 13:05:18;;;;;;;4.10;3.80;;;28.00;53.20;;;;;;222539;1263;24282;-46
2023/07/17 13:10:22;;;;;;;4.30;3.70;;;28.00;53.00;;;;;;222428;1254;22533;-44
2023/07/17 13:15:27;;;;;;;4.10;3.70;;;28.00;52.70;;;;;;222267;1264;22523;-45
2023/07/17 13:20:31;;;;;;;5.00;3.80;;;27.90;52.50;;;;;;222349;1266;25142;-47
2023/07/17 13:25:35;;;;;;;3.90;3.50;;;28.00;53.00;;;;;;222031;1261;24184;-46
2023/07/17 13:30:40;;;;;;;4.10;3.30;;;28.00;52.30;;;;;;222411;1260;22563;-44
2023/07/17 13:35:55;;;;;;;4.40;3.70;;;27.90;51.90;;;;;;222276;1267;25376;-45
2023/07/17 13:41:00;;;;;;;5.60;3.40;;;27.90;51.30;;;;;;222241;1257;22551;-43
2023/07/17 13:46:05;;;;;;;5.20;4.20;;;27.90;50.20;;;;;;222396;1263;24193;-45
2023/07/17 13:51:09;;;;;;;5.90;4.00;;;27.90;49.40;;;;;;222478;1248;22568;-44
2023/07/17 13:56:13;;;;;;;5.30;3.90;;;28.00;49.20;;;;;;222262;1269;24183;-43
2023/07/17 14:01:37;;;;;;;6.90;4.20;;;28.00;48.70;;;;;;222331;1268;24180;-42
2023/07/17 14:06:42;;;;;;;5.00;4.50;;;27.90;48.80;;;;;;222166;1268;24211;-44
2023/07/17 14:11:46;;;;;;;6.60;4.20;;;27.90;48.40;;;;;;222293;1268;24002;-46
2023/07/17 14:16:50;;;;;;;4.80;4.00;;;27.90;48.00;;;;;;222496;1250;226323;-47
2023/07/17 14:21:54;;;;;;;6.10;4.10;;;27.90;47.70;;;;;;222507;1267;22513;-49
2023/07/17 14:26:58;;;;;;;7.10;4.00;;;27.90;47.70;;;;;;222573;1264;24745;-49
2023/07/17 14:32:03;;;;;;;5.00;4.10;;;27.90;47.30;;;;;;222405;1264;24180;-48
2023/07/17 14:37:07;;;;;;;4.60;4.30;;;27.80;47.60;;;;;;222310;1268;22524;-46
2023/07/17 14:42:12;;;;;;;5.60;4.10;;;27.80;47.50;;;;;;222548;1261;22524;-47
2023/07/17 14:47:16;;;;;;;5.10;4.40;;;27.80;48.10;;;;;;222321;1257;25363;-46
2023/07/17 14:52:21;;;;;;;7.60;4.10;;;27.90;47.80;;;;;;230229;1266;23051;-45
2023/07/17 14:57:25;;;;;;;6.00;4.20;;;28.10;47.30;;;;;;227334;1267;22596;-47
2023/07/17 15:02:30;;;;;;;5.00;4.50;;;28.20;47.00;;;;;;222490;1256;26502;-49
2023/07/17 15:07:34;;;;;;;4.50;4.00;;;28.20;46.80;;;;;;222451;1263;26586;-45
2023/07/17 15:12:41;;;;;;;4.90;4.40;;;28.00;47.60;;;;;;222497;1255;22574;-49
2023/07/17 15:17:45;;;;;;;7.30;3.80;;;28.10;47.60;;;;;;222297;1267;22642;-48
2023/07/17 15:22:49;;;;;;;6.40;4.60;;;28.00;47.20;;;;;;222675;1267;22505;-50
2023/07/17 15:27:53;;;;;;;4.40;3.80;;;28.00;47.10;;;;;;222209;1266;22642;-48
2023/07/17 15:32:58;;;;;;;4.80;4.40;;;27.90;46.60;;;;;;222623;1261;22519;-51
2023/07/17 15:38:04;;;;;;;4.70;4.20;;;28.00;47.10;;;;;;222476;1267;23914;-49
2023/07/17 15:43:08;;;;;;;6.70;4.10;;;28.00;47.00;;;;;;222460;1254;26478;-50
2023/07/17 15:48:12;;;;;;;4.90;4.40;;;27.90;45.00;;;;;;222452;1261;25489;-48
2023/07/17 15:53:17;;;;;;;4.80;4.20;;;27.90;44.50;;;;;;222521;1263;22508;-49
2023/07/17 15:58:21;;;;;;;5.00;4.10;;;27.90;44.50;;;;;;222452;1267;24367;-49
2023/07/17 16:03:25;;;;;;;4.50;4.10;;;27.90;44.40;;;;;;222623;1254;22554;-47
2023/07/17 16:08:29;;;;;;;7.20;4.60;;;28.00;44.50;;;;;;222547;1264;22637;-50
2023/07/17 16:13:33;;;;;;;6.40;4.50;;;28.00;44.70;;;;;;222326;1260;22588;-47
2023/07/17 16:18:38;;;;;;;4.80;4.30;;;27.90;44.50;;;;;;222675;1257;22609;-48
2023/07/17 16:23:43;;;;;;;4.60;4.20;;;27.90;44.40;;;;;;222467;1257;22773;-47
2023/07/17 16:28:47;;;;;;;5.60;4.30;;;27.80;44.70;;;;;;222657;1264;22538;-48
2023/07/17 16:33:52;;;;;;;5.60;4.10;;;27.80;44.30;;;;;;222591;1268;24301;-48
2023/07/17 16:38:56;;;;;;;4.70;4.20;;;27.90;44.30;;;;;;222424;1264;22528;-47
2023/07/17 16:44:00;;;;;;;6.30;4.50;;;27.90;43.80;;;;;;222373;1263;22514;-48
2023/07/17 16:49:05;;;;;;;5.30;4.80;;;27.80;45.00;;;;;;222488;1261;22646;-48
2023/07/17 16:54:10;;;;;;;5.80;4.50;;;27.80;43.90;;;;;;222575;1261;25404;-47
2023/07/17 16:59:17;;;;;;;7.50;5.20;;;27.80;44.10;;;;;;222566;1264;24230;-46
2023/07/17 17:04:22;;;;;;;5.30;4.10;;;27.80;43.90;;;;;;222526;1261;24251;-50
2023/07/17 17:09:28;;;;;;;6.10;4.50;;;27.70;43.80;;;;;;222538;1254;25377;-47
2023/07/17 17:14:35;;;;;;;4.80;4.30;;;27.80;44.00;;;;;;222566;1258;22514;-48
2023/07/17 17:19:40;;;;;;;5.60;4.20;;;27.70;44.00;;;;;;222471;1266;25077;-49
2023/07/17 17:24:46;;;;;;;5.50;4.90;;;27.70;44.00;;;;;;222269;1257;22512;-48
2023/07/17 17:29:51;;;;;;;5.30;4.70;;;27.70;44.00;;;;;;222705;1261;24180;-48
2023/07/17 17:34:56;;;;;;;4.90;4.50;;;27.70;43.90;;;;;;222728;1260;22571;-47
2023/07/17 17:40:08;;;;;;;4.90;4.40;;;27.80;44.80;;;;;;222836;1263;22647;-48
2023/07/17 17:45:14;;;;;;;7.10;4.70;;;27.70;44.60;;;;;;222663;1247;25339;-50
2023/07/17 17:50:19;;;;;;;5.30;4.80;;;27.80;44.60;;;;;;222723;1254;24332;-47
2023/07/17 17:55:23;;;;;;;5.40;4.50;;;27.70;44.80;;;;;;222714;1254;22522;-50
2023/07/17 18:00:30;;;;;;;4.50;4.10;;;27.70;44.70;;;;;;222755;1263;25217;-46
2023/07/17 18:05:34;;;;;;;6.40;4.80;;;27.80;45.30;;;;;;222782;1261;25290;-48
2023/07/17 18:10:39;;;;;;;7.30;4.30;;;27.70;45.90;;;;;;222508;1263;22721;-48
2023/07/17 18:15:44;;;;;;;5.40;4.70;;;27.70;46.10;;;;;;222528;1260;22526;-48
2023/07/17 18:20:49;;;;;;;5.00;4.50;;;27.70;46.30;;;;;;222563;1260;24336;-48
2023/07/17 18:25:54;;;;;;;5.30;4.80;;;27.70;46.60;;;;;;222629;1253;22514;-47
2023/07/17 18:30:58;;;;;;;5.50;4.80;;;27.70;47.20;;;;;;222443;1261;25292;-47
2023/07/17 18:36:03;;;;;;;6.60;5.10;;;27.70;47.40;;;;;;222264;1268;24193;-47
2023/07/17 18:41:08;;;;;;;5.80;5.20;;;27.60;47.20;;;;;;222681;1260;22539;-46
2023/07/17 18:46:12;;;;;;;4.50;4.00;;;27.60;47.30;;;;;;222434;1266;22662;-45
2023/07/17 18:51:18;;;;;;;5.80;5.00;;;27.60;47.50;;;;;;222460;1253;22755;-47
2023/07/17 18:56:22;;;;;;;5.40;4.50;;;27.60;47.60;;;;;;222340;1256;24251;-48
2023/07/17 19:01:27;;;;;;;5.50;5.00;;;27.60;47.60;;;;;;222666;1254;25655;-49
2023/07/17 19:06:33;;;;;;;5.00;4.60;;;27.60;47.90;;;;;;222543;1266;22750;-50
2023/07/17 19:11:38;;;;;;;5.40;4.80;;;27.60;47.80;;;;;;222424;1264;22640;-47
2023/07/17 19:16:43;;;;;;;5.90;5.00;;;27.60;47.90;;;;;;222336;1269;22636;-46
2023/07/17 19:21:49;;;;;;;5.80;5.00;;;27.60;48.10;;;;;;222631;1260;22541;-48
2023/07/17 19:26:55;;;;;;;7.00;5.10;;;27.60;48.10;;;;;;222733;1266;22523;-50
2023/07/17 19:32:01;;;;;;;7.50;6.00;;;27.60;48.60;;;;;;222816;1263;22522;-47
2023/07/17 19:37:08;;;;;;;4.60;4.20;;;27.50;48.30;;;;;;222421;1254;25462;-48
2023/07/17 19:42:15;;;;;;;4.60;4.10;;;27.50;48.50;;;;;;222582;1255;22515;-47
2023/07/17 19:47:22;;;;;;;5.80;5.00;;;27.50;48.60;;;;;;222604;1255;25351;-47
2023/07/17 19:52:28;;;;;;;5.60;4.60;;;27.50;48.60;;;;;;222642;1253;22515;-47
2023/07/17 19:57:34;;;;;;;7.20;4.20;;;27.50;48.60;;;;;;222130;1265;22515;-46
2023/07/17 20:02:39;;;;;;;5.60;5.10;;;27.40;48.80;;;;;;222570;1254;22627;-53
2023/07/17 20:07:44;;;;;;;5.70;5.20;;;27.40;48.70;;;;;;222654;1267;25448;-50
2023/07/17 20:12:51;;;;;;;5.00;4.30;;;27.40;48.90;;;;;;222965;1260;22782;-48
2023/07/17 20:17:56;;;;;;;5.70;4.90;;;27.40;48.70;;;;;;222686;1261;22504;-51
2023/07/17 20:23:02;;;;;;;7.50;5.00;;;27.40;48.80;;;;;;222882;1260;24210;-52
2023/07/17 20:28:08;;;;;;;5.80;4.90;;;27.40;48.90;;;;;;222441;1263;24258;-48
2023/07/17 20:33:13;;;;;;;6.80;4.60;;;27.40;49.10;;;;;;222580;1266;23925;-51
2023/07/17 20:38:19;;;;;;;5.20;4.70;;;27.40;48.90;;;;;;222692;1260;22533;-52
2023/07/17 20:43:24;;;;;;;6.80;4.60;;;27.30;49.00;;;;;;222924;1254;22507;-50
2023/07/17 20:48:30;;;;;;;4.60;4.20;;;27.30;49.40;;;;;;222644;1267;25312;-51
2023/07/17 20:53:36;;;;;;;5.90;4.80;;;27.30;49.10;;;;;;222860;1262;25264;-54
2023/07/17 20:58:42;;;;;;;5.10;4.70;;;27.30;49.20;;;;;;222780;1254;24128;-51
2023/07/17 21:03:46;;;;;;;5.30;4.80;;;27.30;49.30;;;;;;222668;1268;25259;-48
2023/07/17 21:08:50;;;;;;;6.70;4.50;;;27.30;49.50;;;;;;222642;1268;24190;-49
2023/07/17 21:13:56;;;;;;;6.70;5.10;;;27.30;49.50;;;;;;222605;1263;22515;-50
2023/07/17 21:19:01;;;;;;;5.40;4.80;;;27.20;50.00;;;;;;222682;1256;22781;-49
2023/07/17 21:24:05;;;;;;;4.90;4.40;;;27.20;49.90;;;;;;222780;1260;23911;-51
2023/07/17 21:29:09;;;;;;;4.80;4.20;;;27.20;49.80;;;;;;222850;1260;22697;-47
2023/07/17 21:34:13;;;;;;;5.10;4.50;;;27.20;50.20;;;;;;222583;1254;22633;-53
2023/07/17 21:39:17;;;;;;;4.90;4.30;;;27.20;50.30;;;;;;222625;1267;24332;-51
2023/07/17 21:44:22;;;;;;;7.00;5.10;;;27.20;50.10;;;;;;222759;1267;22521;-49
2023/07/17 21:49:26;;;;;;;7.30;5.40;;;27.20;50.40;;;;;;223227;1266;25231;-50
2023/07/17 21:54:30;;;;;;;4.70;4.20;;;27.20;50.20;;;;;;222697;1266;22523;-53
2023/07/17 21:59:35;;;;;;;7.60;4.80;;;27.20;50.30;;;;;;222449;1264;22977;-50
2023/07/17 22:04:40;;;;;;;5.40;4.40;;;27.10;50.30;;;;;;222450;1261;22991;-51
2023/07/17 22:09:50;;;;;;;5.50;4.10;;;27.10;50.50;;;;;;222447;1254;22513;-55
2023/07/17 22:14:57;;;;;;;6.20;4.90;;;27.10;50.60;;;;;;222670;1253;22574;-51
2023/07/17 22:20:07;;;;;;;5.00;4.50;;;27.10;50.70;;;;;;222448;1266;22508;-54
2023/07/17 22:25:13;;;;;;;6.80;4.40;;;27.10;50.90;;;;;;222467;1262;22648;-48
2023/07/17 22:30:17;;;;;;;4.80;4.20;;;27.10;51.10;;;;;;222410;1267;22506;-53
2023/07/17 22:35:21;;;;;;;4.40;4.00;;;27.00;51.40;;;;;;222391;1264;22534;-49
2023/07/17 22:40:25;;;;;;;6.60;4.90;;;27.00;51.10;;;;;;222342;1265;25262;-50
2023/07/17 22:45:29;;;;;;;7.20;5.40;;;27.00;51.30;;;;;;222690;1253;22633;-52
2023/07/17 22:50:34;;;;;;;7.10;5.10;;;27.00;51.20;;;;;;222437;1263;22507;-51
2023/07/17 22:55:43;;;;;;;5.70;5.20;;;27.00;51.30;;;;;;222491;1264;22728;-48
2023/07/17 23:00:47;;;;;;;5.00;4.50;;;27.00;51.30;;;;;;222341;1267;22524;-49
2023/07/17 23:05:51;;;;;;;7.80;4.60;;;26.90;51.30;;;;;;222351;1263;22541;-51
2023/07/17 23:10:56;;;;;;;6.10;5.30;;;26.70;51.30;;;;;;222429;1252;22512;-48
2023/07/17 23:16:00;;;;;;;7.80;6.20;;;26.70;51.00;;;;;;222530;1256;22523;-51
2023/07/17 23:21:04;;;;;;;7.60;5.50;;;26.60;50.80;;;;;;222544;1267;22559;-54
2023/07/17 23:26:08;;;;;;;6.50;5.60;;;26.50;50.20;;;;;;222681;1253;23264;-51
2023/07/17 23:31:14;;;;;;;7.10;5.00;;;26.40;49.10;;;;;;222449;1262;22511;-47
2023/07/17 23:36:19;;;;;;;5.10;4.30;;;26.30;47.40;;;;;;222519;1266;25204;-53
2023/07/17 23:41:23;;;;;;;7.90;3.90;;;26.20;46.50;;;;;;222633;1256;22534;-48
2023/07/17 23:46:28;;;;;;;8.10;3.80;;;26.20;45.70;;;;;;222439;1257;22685;-48
2023/07/17 23:51:32;;;;;;;5.60;3.20;;;26.00;45.70;;;;;;222595;1261;22508;-51
2023/07/17 23:56:39;;;;;;;5.70;3.50;;;26.00;45.10;;;;;;222528;1261;22510;-50
